Terminal Aerodrome Forecast
Issued by NWS

Home | Current Version | Previous Version | Text Only | Print | Product List | Glossary On
Versions: 1 2 3 4 5 6 7 8 9 10 11 12 13 14
000
FTUS44 KEPZ 162300
TAFDMN
TAF
KDMN 162329Z 1700/1724 27020G30KT P6SM SKC
     FM170200 30010KT P6SM FEW150 SCT250
     FM171400 VRB04KT P6SM FEW250=

USA.gov is the U.S. government's official web portal to all federal, state and local government web resources and services.